Time;durP1;ratioP1;P1;durP2;ratioP2;P2;SDS_P1;SDS_P2;PMS_P1;PMS_P2;Temp;Humidity;BMP_temperature;BMP_pressure;BME280_temperature;BME280_humidity;BME280_pressure;Samples;Min_cycle;Max_cycle;Signal;HPM_P1;HPM_P2
2023/11/09 00:01:38;;;;;;;2.27;1.70;;;8.40;99.90;;;;;;5094416;28;20465;-57
2023/11/09 00:04:07;;;;;;;2.43;1.73;;;8.40;99.90;;;;;;5097046;28;20438;-58
2023/11/09 00:06:33;;;;;;;1.90;1.20;;;8.40;99.90;;;;;;5098646;28;20481;-59
2023/11/09 00:09:00;;;;;;;2.33;1.60;;;8.40;99.90;;;;;;5114316;28;20422;-55
2023/11/09 00:11:30;;;;;;;4.67;2.13;;;8.40;99.90;;;;;;5115263;28;20437;-59
2023/11/09 00:13:57;;;;;;;3.57;1.73;;;8.30;99.90;;;;;;5115531;28;20418;-58
2023/11/09 00:16:24;;;;;;;4.60;1.77;;;8.30;99.90;;;;;;5131341;28;20508;-60
2023/11/09 00:18:52;;;;;;;5.23;1.80;;;8.30;99.90;;;;;;5135469;28;20421;-58
2023/11/09 00:21:20;;;;;;;9.53;2.30;;;8.30;99.90;;;;;;5135102;28;20458;-58
2023/11/09 00:23:47;;;;;;;1.87;1.57;;;8.30;99.90;;;;;;5135028;28;20441;-57
2023/11/09 00:26:14;;;;;;;6.13;2.10;;;8.30;99.90;;;;;;5134963;28;20524;-57
2023/11/09 00:28:41;;;;;;;2.77;1.70;;;8.20;99.90;;;;;;5135357;28;20474;-60
2023/11/09 00:31:08;;;;;;;2.20;2.00;;;8.20;99.90;;;;;;5139469;28;20913;-57
2023/11/09 00:33:35;;;;;;;3.00;1.90;;;8.20;99.90;;;;;;5121474;28;20563;-58
2023/11/09 00:36:02;;;;;;;2.20;1.50;;;8.20;99.90;;;;;;5118105;28;20980;-57
2023/11/09 00:38:30;;;;;;;1.90;1.70;;;8.20;99.90;;;;;;5119123;28;20481;-59
2023/11/09 00:40:57;;;;;;;4.13;1.90;;;8.20;99.90;;;;;;5127671;28;20437;-58
2023/11/09 00:43:24;;;;;;;4.70;1.73;;;8.20;99.90;;;;;;5138569;28;20472;-57
2023/11/09 00:45:53;;;;;;;4.53;1.80;;;8.20;99.90;;;;;;5113701;28;20468;-58
2023/11/09 00:48:19;;;;;;;6.57;1.37;;;8.20;99.90;;;;;;5097271;28;20465;-59
2023/11/09 00:50:46;;;;;;;2.40;1.57;;;8.20;99.90;;;;;;5101266;28;20940;-58
2023/11/09 00:53:13;;;;;;;5.50;1.80;;;8.20;99.90;;;;;;5101844;28;21025;-58
2023/11/09 00:55:42;;;;;;;4.80;1.93;;;8.20;99.90;;;;;;5115998;28;20441;-56
2023/11/09 00:58:08;;;;;;;3.47;1.30;;;8.20;99.90;;;;;;5118947;28;20469;-54
2023/11/09 01:00:35;;;;;;;2.27;1.73;;;8.20;99.90;;;;;;5117750;28;20445;-60
2023/11/09 01:03:02;;;;;;;2.10;2.00;;;8.20;99.90;;;;;;5117447;28;20466;-58
2023/11/09 01:05:30;;;;;;;2.53;2.20;;;8.20;99.90;;;;;;5117959;28;20437;-60
2023/11/09 01:07:57;;;;;;;3.83;2.43;;;8.20;99.90;;;;;;5117737;28;20523;-57
2023/11/09 01:10:24;;;;;;;2.50;1.80;;;8.20;99.90;;;;;;5117955;28;20449;-57
2023/11/09 01:12:52;;;;;;;2.57;1.67;;;8.20;99.90;;;;;;5118037;28;20518;-59
2023/11/09 01:15:19;;;;;;;3.70;1.90;;;8.20;99.90;;;;;;5125485;28;20476;-57
2023/11/09 01:18:02;;;;;;;4.60;1.80;;;8.20;99.90;;;;;;5138317;28;20471;-59
2023/11/09 01:20:30;;;;;;;3.57;1.47;;;8.20;99.90;;;;;;5137788;28;20427;-57
2023/11/09 01:22:57;;;;;;;2.37;1.40;;;8.20;99.90;;;;;;5137742;28;20471;-56
2023/11/09 01:25:24;;;;;;;1.80;1.50;;;8.20;99.90;;;;;;5138070;28;20439;-58
2023/11/09 01:27:52;;;;;;;2.93;1.57;;;8.20;99.90;;;;;;5137545;28;20492;-57
2023/11/09 01:30:19;;;;;;;2.87;1.73;;;8.20;99.90;;;;;;5138004;28;20474;-56
2023/11/09 01:32:46;;;;;;;2.10;1.40;;;8.20;99.90;;;;;;5138059;28;20455;-58
2023/11/09 01:35:13;;;;;;;7.93;1.50;;;8.20;99.90;;;;;;5137672;28;20451;-60
2023/11/09 01:37:40;;;;;;;8.20;1.50;;;8.20;99.90;;;;;;5137804;28;20443;-60
2023/11/09 01:40:09;;;;;;;4.33;1.70;;;8.20;99.90;;;;;;5137698;28;20439;-56
2023/11/09 01:42:36;;;;;;;2.33;1.63;;;8.30;99.90;;;;;;5136930;28;20491;-57
2023/11/09 01:45:06;;;;;;;2.80;1.53;;;8.30;99.90;;;;;;5137695;28;20463;-58
2023/11/09 01:47:33;;;;;;;2.50;1.50;;;8.30;99.90;;;;;;5138056;28;20502;-60
2023/11/09 01:50:00;;;;;;;2.37;1.90;;;8.30;99.90;;;;;;5137801;28;20483;-55
2023/11/09 01:52:27;;;;;;;3.23;1.87;;;8.30;99.90;;;;;;5137538;28;20447;-60
2023/11/09 01:54:55;;;;;;;2.10;1.60;;;8.30;99.90;;;;;;5137352;28;20471;-57
2023/11/09 01:57:22;;;;;;;1.60;1.27;;;8.30;99.90;;;;;;5137343;28;20464;-51
2023/11/09 01:59:52;;;;;;;2.53;1.93;;;8.30;99.90;;;;;;5137400;28;20441;-56
2023/11/09 02:02:22;;;;;;;3.27;2.27;;;8.30;99.90;;;;;;5136700;28;20440;-57
2023/11/09 02:04:49;;;;;;;1.40;1.20;;;8.40;99.90;;;;;;5116547;28;20480;-56
2023/11/09 02:07:19;;;;;;;3.20;1.77;;;8.30;99.90;;;;;;5116163;28;20539;-58
2023/11/09 02:09:48;;;;;;;3.33;2.27;;;8.30;99.90;;;;;;5116383;28;20471;-60
2023/11/09 02:12:16;;;;;;;3.33;2.43;;;8.30;99.90;;;;;;5116086;28;20452;-59
2023/11/09 02:14:43;;;;;;;2.53;1.57;;;8.30;99.90;;;;;;5116531;28;20941;-58
2023/11/09 02:17:12;;;;;;;3.80;1.43;;;8.30;99.90;;;;;;5118397;28;20773;-56
2023/11/09 02:19:40;;;;;;;3.40;1.33;;;8.30;99.90;;;;;;5118727;28;20484;-57
2023/11/09 02:22:08;;;;;;;1.93;1.70;;;8.30;99.90;;;;;;5127228;28;20444;-55
2023/11/09 02:24:36;;;;;;;3.00;1.53;;;8.30;99.90;;;;;;5134526;28;20545;-59
2023/11/09 02:27:05;;;;;;;1.77;1.30;;;8.40;99.90;;;;;;5135263;28;20480;-58
2023/11/09 02:29:32;;;;;;;2.83;1.57;;;8.40;99.90;;;;;;5135486;28;20472;-56
2023/11/09 02:32:00;;;;;;;3.77;2.23;;;8.40;99.90;;;;;;5136526;28;20432;-56
2023/11/09 02:34:29;;;;;;;2.20;1.30;;;8.40;99.90;;;;;;5136600;28;20498;-57
2023/11/09 02:36:57;;;;;;;2.33;1.40;;;8.40;99.90;;;;;;5136738;28;20440;-56
2023/11/09 02:39:24;;;;;;;1.73;1.27;;;8.40;99.90;;;;;;5137030;28;20465;-60
2023/11/09 02:41:52;;;;;;;1.57;1.47;;;8.40;99.90;;;;;;5136942;28;20432;-56
2023/11/09 02:44:19;;;;;;;3.13;1.20;;;8.40;99.90;;;;;;5136838;28;20456;-56
2023/11/09 02:46:46;;;;;;;1.57;1.47;;;8.50;99.90;;;;;;5116231;28;20477;-58
2023/11/09 02:49:12;;;;;;;4.90;1.37;;;8.50;99.90;;;;;;5115802;28;20449;-58
2023/11/09 02:51:39;;;;;;;3.60;1.50;;;8.50;99.90;;;;;;5115750;28;20421;-60
2023/11/09 02:54:06;;;;;;;2.27;1.83;;;8.50;99.90;;;;;;5114727;28;20445;-58
2023/11/09 02:56:35;;;;;;;4.60;1.77;;;8.50;99.90;;;;;;5115715;28;20430;-57
2023/11/09 02:59:03;;;;;;;2.50;1.53;;;8.50;99.90;;;;;;5115618;28;20441;-57
2023/11/09 03:01:30;;;;;;;4.60;1.80;;;8.50;99.90;;;;;;5109792;28;20441;-51
2023/11/09 03:03:57;;;;;;;2.60;1.40;;;8.50;99.90;;;;;;5094096;28;20445;-58
2023/11/09 03:06:25;;;;;;;2.50;1.80;;;8.40;99.90;;;;;;5094018;28;20519;-59
2023/11/09 03:08:52;;;;;;;2.33;1.90;;;8.50;99.90;;;;;;5094244;28;20539;-58
2023/11/09 03:11:19;;;;;;;4.10;1.70;;;8.40;99.90;;;;;;5094097;28;20842;-59
2023/11/09 03:13:45;;;;;;;4.77;1.77;;;8.50;99.90;;;;;;5093868;28;20985;-56
2023/11/09 03:16:14;;;;;;;3.60;2.17;;;8.40;99.90;;;;;;5109223;28;20471;-56
2023/11/09 03:18:42;;;;;;;2.70;1.50;;;8.40;99.90;;;;;;5114434;28;20432;-60
2023/11/09 03:21:09;;;;;;;2.80;1.53;;;8.40;99.90;;;;;;5114469;28;20465;-60
2023/11/09 03:23:36;;;;;;;2.73;1.90;;;8.50;99.90;;;;;;5117020;28;21009;-57
2023/11/09 03:26:04;;;;;;;2.20;1.40;;;8.50;99.90;;;;;;5132183;28;20524;-53
2023/11/09 03:28:33;;;;;;;2.10;1.23;;;8.50;99.90;;;;;;5135270;28;20511;-56
2023/11/09 03:31:03;;;;;;;1.47;1.20;;;8.50;99.90;;;;;;5135144;28;20497;-57
2023/11/09 03:33:32;;;;;;;3.00;1.63;;;8.60;99.90;;;;;;5135441;28;20427;-55
2023/11/09 03:35:58;;;;;;;1.50;1.40;;;8.50;99.90;;;;;;5135519;28;20464;-53
2023/11/09 03:38:25;;;;;;;2.17;1.40;;;8.50;99.90;;;;;;5135092;28;20479;-56
2023/11/09 03:40:52;;;;;;;4.20;1.70;;;8.50;99.90;;;;;;5134982;28;20465;-55
2023/11/09 03:43:19;;;;;;;1.60;1.33;;;8.50;99.90;;;;;;5135326;28;20456;-61
2023/11/09 03:45:46;;;;;;;1.27;1.10;;;8.50;99.90;;;;;;5085140;28;1093887;-57
2023/11/09 03:48:14;;;;;;;2.77;1.53;;;8.50;99.90;;;;;;5115365;28;20218;-58
2023/11/09 03:50:42;;;;;;;3.27;1.50;;;8.40;99.90;;;;;;5115246;28;20476;-57
2023/11/09 03:53:10;;;;;;;2.80;1.40;;;8.50;99.90;;;;;;5114983;28;20437;-56
2023/11/09 03:55:37;;;;;;;2.50;1.67;;;8.40;99.90;;;;;;5115048;28;20503;-60
2023/11/09 03:58:04;;;;;;;1.30;1.20;;;8.50;99.90;;;;;;5115113;28;20451;-60
2023/11/09 04:00:31;;;;;;;1.80;1.50;;;8.50;99.90;;;;;;5115073;28;20435;-56
2023/11/09 04:02:58;;;;;;;3.20;1.43;;;8.50;99.90;;;;;;5115486;28;20421;-58
2023/11/09 04:05:24;;;;;;;1.43;1.33;;;8.50;99.90;;;;;;5117174;28;20441;-59
2023/11/09 04:07:53;;;;;;;1.40;1.13;;;8.60;99.90;;;;;;5119058;28;20470;-57
2023/11/09 04:10:19;;;;;;;1.97;1.57;;;8.60;99.90;;;;;;5118714;28;20449;-65
2023/11/09 04:12:46;;;;;;;2.43;1.60;;;8.60;99.90;;;;;;5119320;28;20784;-59
2023/11/09 04:15:14;;;;;;;4.03;1.90;;;8.70;99.90;;;;;;5111396;28;20479;-59
2023/11/09 04:17:41;;;;;;;2.70;1.70;;;8.70;99.90;;;;;;5118484;28;20817;-60
2023/11/09 04:20:09;;;;;;;3.17;1.70;;;8.70;99.90;;;;;;5118868;28;20532;-57
2023/11/09 04:22:36;;;;;;;4.60;2.10;;;8.80;99.90;;;;;;5122065;28;20524;-59
2023/11/09 04:25:06;;;;;;;2.70;1.80;;;8.80;99.90;;;;;;5118485;28;21003;-58
2023/11/09 04:27:37;;;;;;;1.87;1.27;;;8.90;99.90;;;;;;5125181;28;20545;-58
2023/11/09 04:30:05;;;;;;;2.17;1.37;;;8.90;99.90;;;;;;5127415;28;20440;-58
2023/11/09 04:32:32;;;;;;;2.70;1.30;;;8.90;99.90;;;;;;5126957;28;20483;-55
2023/11/09 04:34:59;;;;;;;1.70;0.97;;;9.00;99.90;;;;;;5130641;28;20455;-56
2023/11/09 04:37:26;;;;;;;1.63;1.43;;;9.00;99.90;;;;;;5138574;28;20464;-56
2023/11/09 04:39:58;;;;;;;2.63;1.43;;;9.10;99.90;;;;;;5139311;28;20462;-59
2023/11/09 04:42:29;;;;;;;2.47;1.67;;;9.10;99.90;;;;;;5139753;28;20463;-58
2023/11/09 04:44:57;;;;;;;6.33;1.70;;;9.10;99.90;;;;;;5134371;28;20465;-60
2023/11/09 04:47:27;;;;;;;5.33;1.37;;;9.20;99.90;;;;;;5108311;28;20961;-61
2023/11/09 04:50:00;;;;;;;1.43;1.03;;;9.20;99.90;;;;;;5097636;28;20514;-58
2023/11/09 04:52:29;;;;;;;1.40;1.03;;;9.20;99.90;;;;;;5097293;28;20468;-56
2023/11/09 04:55:10;;;;;;;2.73;1.20;;;9.30;99.90;;;;;;5097459;28;20441;-56
2023/11/09 05:08:40;;;;;;;4.10;1.60;;;9.50;99.90;;;;;;5108482;28;20522;-57
2023/11/09 05:11:09;;;;;;;3.37;1.40;;;9.60;99.90;;;;;;5113660;28;20442;-57
2023/11/09 05:13:37;;;;;;;3.40;1.40;;;9.60;99.90;;;;;;5099320;28;20449;-55
2023/11/09 05:16:04;;;;;;;1.73;1.33;;;9.60;99.90;;;;;;5135485;28;20424;-57
2023/11/09 05:18:31;;;;;;;1.63;1.40;;;9.60;99.90;;;;;;5141815;28;20437;-58
2023/11/09 05:20:58;;;;;;;2.30;1.27;;;9.60;99.90;;;;;;5141799;28;20440;-59
2023/11/09 05:23:25;;;;;;;2.50;1.47;;;9.70;99.90;;;;;;5118745;28;20464;-57
2023/11/09 05:25:53;;;;;;;2.93;1.40;;;9.70;99.90;;;;;;5117436;28;20440;-58
2023/11/09 05:28:19;;;;;;;4.37;1.70;;;9.70;99.90;;;;;;5117185;28;20484;-54
2023/11/09 05:30:50;;;;;;;2.77;1.50;;;9.70;99.90;;;;;;5117578;28;20432;-58
2023/11/09 05:33:17;;;;;;;4.87;1.40;;;9.70;99.90;;;;;;5117260;28;20471;-57
2023/11/09 05:35:44;;;;;;;2.43;1.40;;;9.70;99.90;;;;;;5117241;28;20527;-59
2023/11/09 05:38:11;;;;;;;1.90;1.20;;;9.70;99.90;;;;;;5140707;28;20456;-51
2023/11/09 05:40:38;;;;;;;2.93;1.57;;;9.80;99.90;;;;;;5141581;28;20417;-54
2023/11/09 05:43:05;;;;;;;3.10;1.20;;;9.80;99.90;;;;;;5141412;28;20457;-57
2023/11/09 05:45:32;;;;;;;2.30;1.13;;;9.80;99.90;;;;;;5287395;22;20453;-65
2023/11/09 05:48:17;;;;;;;1.40;1.13;;;9.80;99.90;;;;;;5076167;28;20467;-65
2023/11/09 05:50:44;;;;;;;2.20;1.10;;;9.90;99.90;;;;;;5075647;28;20438;-66
2023/11/09 05:53:15;;;;;;;4.77;1.67;;;9.90;99.90;;;;;;5074729;28;20443;-67
2023/11/09 05:55:50;;;;;;;3.53;1.27;;;9.90;99.90;;;;;;5075801;28;20459;-66
2023/11/09 05:58:54;;;;;;;2.20;1.27;;;9.90;99.90;;;;;;5076023;28;20457;-67
2023/11/09 06:01:21;;;;;;;1.93;1.23;;;9.90;99.90;;;;;;5078272;28;20445;-66
2023/11/09 06:04:12;;;;;;;1.73;1.30;;;9.90;99.90;;;;;;5079859;28;20427;-65
2023/11/09 06:06:43;;;;;;;3.57;1.30;;;9.90;99.90;;;;;;5082573;28;20427;-65
2023/11/09 06:09:10;;;;;;;1.20;1.10;;;10.00;99.90;;;;;;5081671;28;20540;-66
2023/11/09 06:11:46;;;;;;;2.27;1.43;;;10.00;99.90;;;;;;5079639;28;20834;-66
2023/11/09 06:14:31;;;;;;;2.03;1.30;;;10.00;99.90;;;;;;5077459;28;20845;-66
2023/11/09 06:16:58;;;;;;;1.60;1.37;;;10.00;99.90;;;;;;5077292;28;20447;-66
2023/11/09 06:19:26;;;;;;;8.93;2.17;;;10.00;99.90;;;;;;5076881;28;20485;-66
2023/11/09 06:22:07;;;;;;;1.60;1.20;;;10.00;99.90;;;;;;5076662;28;20443;-66
2023/11/09 06:24:56;;;;;;;6.83;2.00;;;10.00;99.90;;;;;;5076054;28;20478;-65
2023/11/09 06:27:23;;;;;;;4.07;1.77;;;10.10;99.90;;;;;;5075120;28;20445;-66
2023/11/09 06:29:52;;;;;;;1.13;0.90;;;10.10;99.90;;;;;;5075541;28;20535;-66
2023/11/09 06:32:21;;;;;;;1.53;1.30;;;10.00;99.90;;;;;;5075709;28;20485;-66
2023/11/09 06:34:52;;;;;;;1.83;1.53;;;10.10;99.90;;;;;;5076338;28;20512;-65
2023/11/09 06:37:20;;;;;;;3.50;1.73;;;10.10;99.90;;;;;;5076106;28;20426;-66
2023/11/09 06:39:49;;;;;;;2.17;1.37;;;10.10;99.90;;;;;;5074590;28;20470;-66
2023/11/09 06:42:33;;;;;;;2.40;1.33;;;10.10;99.90;;;;;;5075388;28;20427;-67
2023/11/09 06:45:11;;;;;;;3.63;1.40;;;10.10;99.90;;;;;;5076467;28;20978;-65
2023/11/09 06:47:39;;;;;;;3.93;1.33;;;10.10;99.90;;;;;;5075769;28;20860;-66
2023/11/09 06:50:12;;;;;;;3.70;1.43;;;10.10;99.90;;;;;;5073812;28;20858;-67
2023/11/09 06:52:55;;;;;;;3.63;1.27;;;10.10;99.90;;;;;;5075247;28;20443;-66
2023/11/09 06:55:23;;;;;;;1.30;1.03;;;10.10;99.90;;;;;;5075686;28;20865;-66
2023/11/09 06:57:50;;;;;;;1.93;1.20;;;10.20;99.90;;;;;;5075945;28;20487;-66
2023/11/09 07:00:21;;;;;;;2.40;1.40;;;10.20;99.90;;;;;;5075575;28;20500;-66
2023/11/09 07:02:50;;;;;;;3.53;1.13;;;10.20;99.90;;;;;;5076134;28;20949;-66
2023/11/09 07:05:19;;;;;;;2.83;1.73;;;10.30;99.90;;;;;;5075949;28;20510;-66
2023/11/09 07:07:49;;;;;;;3.13;1.37;;;10.30;99.90;;;;;;5077093;28;20419;-65
2023/11/09 07:10:29;;;;;;;3.23;1.20;;;10.30;99.90;;;;;;5075871;28;20478;-66
2023/11/09 07:12:57;;;;;;;1.83;1.33;;;10.30;99.90;;;;;;5079182;28;20796;-66
2023/11/09 07:15:26;;;;;;;1.90;1.30;;;10.30;99.90;;;;;;5076648;28;20447;-64
2023/11/09 07:17:54;;;;;;;1.93;1.23;;;10.40;99.90;;;;;;5075731;28;20492;-65
2023/11/09 07:20:42;;;;;;;2.03;1.60;;;10.40;99.90;;;;;;5076082;28;20467;-65
2023/11/09 07:23:09;;;;;;;1.80;1.33;;;10.40;99.90;;;;;;5076173;28;20423;-68
2023/11/09 07:25:37;;;;;;;3.00;1.60;;;10.40;99.90;;;;;;5075616;28;20431;-66
2023/11/09 07:28:13;;;;;;;3.30;1.40;;;10.40;99.90;;;;;;5074913;28;20497;-67
2023/11/09 07:30:40;;;;;;;2.03;1.23;;;10.40;99.90;;;;;;5074512;28;20466;-66
2023/11/09 07:33:08;;;;;;;2.80;1.53;;;10.40;99.90;;;;;;5074407;28;20455;-66
2023/11/09 07:35:36;;;;;;;2.47;1.60;;;10.50;99.90;;;;;;5074999;28;20458;-66
2023/11/09 07:38:42;;;;;;;2.93;1.50;;;10.50;99.90;;;;;;5074402;28;20915;-66
2023/11/09 07:41:27;;;;;;;2.83;1.30;;;10.50;99.90;;;;;;5075560;28;20473;-66
2023/11/09 07:43:55;;;;;;;2.33;1.53;;;10.50;99.90;;;;;;5076190;28;20430;-66
2023/11/09 07:46:22;;;;;;;2.40;1.63;;;10.60;99.90;;;;;;5074662;28;20508;-66
2023/11/09 07:48:57;;;;;;;2.37;1.23;;;10.50;99.90;;;;;;5075368;28;21061;-66
2023/11/09 07:51:24;;;;;;;1.70;1.23;;;10.60;99.90;;;;;;5074868;28;20433;-66
2023/11/09 07:53:52;;;;;;;4.03;1.83;;;10.70;99.90;;;;;;5074872;28;20454;-66
2023/11/09 07:56:40;;;;;;;3.33;1.70;;;10.80;99.90;;;;;;5073927;28;20448;-66
2023/11/09 07:59:07;;;;;;;2.30;1.53;;;10.80;99.90;;;;;;5074908;28;20466;-66
2023/11/09 08:01:34;;;;;;;2.13;1.23;;;10.90;99.90;;;;;;5075315;28;20443;-65
2023/11/09 08:04:15;;;;;;;3.63;1.77;;;10.80;99.90;;;;;;5074512;28;20423;-65
2023/11/09 08:06:47;;;;;;;3.73;1.20;;;10.90;99.90;;;;;;5074092;28;20470;-66
2023/11/09 08:09:19;;;;;;;2.17;1.27;;;10.90;99.90;;;;;;5074383;28;20513;-66
2023/11/09 08:11:50;;;;;;;7.00;1.50;;;10.90;99.90;;;;;;5075353;28;20438;-66
2023/11/09 08:14:19;;;;;;;1.70;1.10;;;11.00;99.90;;;;;;5074330;28;20431;-67
2023/11/09 08:16:48;;;;;;;1.53;1.10;;;11.00;99.90;;;;;;5074997;28;20481;-66
2023/11/09 08:19:15;;;;;;;2.70;1.30;;;11.00;99.90;;;;;;5075094;28;20924;-65
2023/11/09 08:21:42;;;;;;;1.77;1.30;;;10.90;99.90;;;;;;5076293;28;20430;-66
2023/11/09 08:24:12;;;;;;;2.30;1.33;;;10.90;99.90;;;;;;5079381;28;20426;-65
2023/11/09 08:26:52;;;;;;;7.33;2.10;;;10.90;99.90;;;;;;5079723;28;20462;-66
2023/11/09 08:29:22;;;;;;;2.13;1.20;;;10.90;99.90;;;;;;5079037;28;20485;-64
2023/11/09 08:31:49;;;;;;;1.23;0.93;;;10.90;99.90;;;;;;5079546;28;20513;-66
2023/11/09 08:34:25;;;;;;;1.97;1.30;;;11.00;99.90;;;;;;5078777;28;20454;-66
2023/11/09 08:37:12;;;;;;;5.77;1.57;;;11.00;99.90;;;;;;5079814;28;20466;-66
2023/11/09 08:39:41;;;;;;;3.10;1.60;;;11.00;99.90;;;;;;5078858;28;20455;-66
2023/11/09 08:42:10;;;;;;;1.63;1.27;;;11.10;99.90;;;;;;5079070;28;20450;-67
2023/11/09 08:44:43;;;;;;;1.70;1.40;;;11.20;99.90;;;;;;5079100;28;20484;-68
2023/11/09 08:47:11;;;;;;;2.27;1.40;;;11.30;99.90;;;;;;5079074;28;21015;-67
2023/11/09 08:49:38;;;;;;;5.53;1.93;;;11.40;99.90;;;;;;5080001;28;20491;-66
2023/11/09 08:52:23;;;;;;;2.40;1.73;;;11.40;99.90;;;;;;5083162;28;20423;-66
2023/11/09 08:54:52;;;;;;;1.83;1.67;;;11.50;99.90;;;;;;5082719;28;20510;-66
2023/11/09 08:57:21;;;;;;;2.20;1.47;;;11.60;99.90;;;;;;5082411;28;20422;-65
2023/11/09 08:59:50;;;;;;;10.03;1.70;;;11.60;99.90;;;;;;5082173;28;20450;-65
2023/11/09 09:02:48;;;;;;;3.10;1.90;;;11.60;99.90;;;;;;5083149;28;20561;-65
2023/11/09 09:05:20;;;;;;;4.27;1.63;;;11.60;99.90;;;;;;5081583;28;20438;-66
2023/11/09 09:07:49;;;;;;;3.13;1.73;;;11.50;99.90;;;;;;5082901;28;20976;-66
2023/11/09 09:10:20;;;;;;;3.13;1.97;;;11.50;99.90;;;;;;5083125;28;20565;-65
2023/11/09 09:12:51;;;;;;;3.53;1.97;;;11.50;99.90;;;;;;5081908;28;20431;-66
2023/11/09 09:15:20;;;;;;;2.60;2.07;;;11.50;99.90;;;;;;5082854;28;20499;-66
2023/11/09 09:18:02;;;;;;;2.27;1.80;;;11.50;99.90;;;;;;5097500;28;20438;-66
2023/11/09 09:20:30;;;;;;;3.90;1.93;;;11.50;99.90;;;;;;5096577;28;20445;-67
2023/11/09 09:22:59;;;;;;;3.43;1.80;;;11.50;99.90;;;;;;5097061;28;20426;-67
2023/11/09 09:25:33;;;;;;;3.50;1.87;;;11.60;99.90;;;;;;5097114;28;20425;-66
2023/11/09 09:28:03;;;;;;;1.70;1.30;;;11.60;99.90;;;;;;5102307;28;20426;-65
2023/11/09 09:30:31;;;;;;;2.43;1.93;;;11.60;99.90;;;;;;5102448;28;20461;-66
2023/11/09 09:33:01;;;;;;;3.10;1.60;;;11.70;99.90;;;;;;5102874;28;20517;-66
2023/11/09 09:35:32;;;;;;;2.30;1.60;;;11.70;99.90;;;;;;5102039;28;20491;-65
2023/11/09 09:37:59;;;;;;;3.80;1.70;;;11.70;99.90;;;;;;5102301;28;20430;-66
2023/11/09 09:40:36;;;;;;;3.33;1.83;;;11.70;99.90;;;;;;5102627;28;20425;-65
2023/11/09 09:43:22;;;;;;;2.60;1.57;;;11.80;99.90;;;;;;5101513;28;20521;-66
2023/11/09 09:45:58;;;;;;;4.00;1.83;;;11.80;99.90;;;;;;5091718;28;20450;-66
2023/11/09 09:48:28;;;;;;;2.20;1.73;;;11.90;99.90;;;;;;5082201;28;20465;-66
2023/11/09 09:51:00;;;;;;;2.70;1.60;;;11.90;99.90;;;;;;5081097;28;20505;-65
2023/11/09 09:53:30;;;;;;;5.40;1.60;;;12.00;99.90;;;;;;5081265;28;20467;-66
2023/11/09 09:56:03;;;;;;;5.47;2.10;;;12.00;99.90;;;;;;5081290;28;20502;-66
2023/11/09 09:58:36;;;;;;;4.23;2.10;;;12.10;99.90;;;;;;5082239;28;20465;-66
2023/11/09 10:01:05;;;;;;;3.10;1.50;;;12.20;99.90;;;;;;5082489;28;20425;-67
2023/11/09 10:03:37;;;;;;;3.27;1.37;;;12.20;99.90;;;;;;5079446;28;20442;-67
2023/11/09 10:06:06;;;;;;;2.77;1.63;;;12.30;99.90;;;;;;5081638;28;20931;-65
2023/11/09 10:08:35;;;;;;;6.03;1.60;;;12.30;99.90;;;;;;5081272;28;20531;-67
2023/11/09 10:11:08;;;;;;;2.30;1.63;;;12.30;99.90;;;;;;5080539;28;20482;-65
2023/11/09 10:13:46;;;;;;;1.63;1.17;;;12.40;99.90;;;;;;5080789;28;20466;-67
2023/11/09 10:16:15;;;;;;;2.37;1.50;;;12.40;99.90;;;;;;5094017;28;20536;-67
2023/11/09 10:18:43;;;;;;;2.13;1.27;;;12.40;99.90;;;;;;5099362;28;20464;-64
2023/11/09 10:21:18;;;;;;;3.27;1.40;;;12.40;99.90;;;;;;5100177;28;20801;-67
2023/11/09 10:23:54;;;;;;;1.43;1.07;;;12.40;99.90;;;;;;5099099;28;20973;-67
2023/11/09 10:26:22;;;;;;;1.93;1.30;;;12.40;99.90;;;;;;5102112;28;20507;-67
2023/11/09 10:28:55;;;;;;;1.60;1.03;;;12.40;99.90;;;;;;5097706;28;20472;-66
2023/11/09 10:31:32;;;;;;;2.40;1.30;;;12.40;99.90;;;;;;5096379;28;20440;-66
2023/11/09 10:34:02;;;;;;;4.00;1.67;;;12.40;99.90;;;;;;5096426;28;20477;-66
2023/11/09 10:36:31;;;;;;;2.90;1.63;;;12.50;99.90;;;;;;5096072;28;20509;-68
2023/11/09 10:39:00;;;;;;;2.63;1.10;;;12.60;99.90;;;;;;5096093;28;20862;-65
2023/11/09 10:41:29;;;;;;;4.33;1.83;;;12.60;99.90;;;;;;5095995;28;20938;-66
2023/11/09 10:44:00;;;;;;;3.70;1.43;;;12.60;99.90;;;;;;5095563;28;20802;-66
2023/11/09 10:46:29;;;;;;;2.47;1.60;;;12.60;99.90;;;;;;5079877;28;20977;-67
2023/11/09 10:48:58;;;;;;;1.67;1.30;;;12.60;99.90;;;;;;5075673;28;20462;-68
2023/11/09 10:51:28;;;;;;;3.53;1.53;;;12.60;99.90;;;;;;5075557;28;20437;-65
2023/11/09 10:54:00;;;;;;;2.43;1.23;;;12.60;99.90;;;;;;5074098;28;21006;-65
2023/11/09 10:56:31;;;;;;;2.13;1.63;;;12.50;99.90;;;;;;5075879;28;20903;-66
2023/11/09 10:59:00;;;;;;;4.47;1.50;;;12.60;99.90;;;;;;5076409;28;20550;-66
2023/11/09 11:01:33;;;;;;;2.57;1.50;;;12.60;99.90;;;;;;5075774;28;20473;-67
2023/11/09 11:04:08;;;;;;;2.30;1.23;;;12.60;99.90;;;;;;5075564;28;20914;-67
2023/11/09 11:06:51;;;;;;;2.33;1.80;;;12.60;99.90;;;;;;5075356;28;20484;-66
2023/11/09 11:09:26;;;;;;;2.90;1.53;;;12.70;99.90;;;;;;5075432;28;20473;-66
2023/11/09 11:12:00;;;;;;;3.60;1.80;;;12.60;99.90;;;;;;5076747;28;20449;-66
2023/11/09 11:14:34;;;;;;;4.47;1.23;;;12.60;99.90;;;;;;5076091;28;20474;-65
2023/11/09 11:17:31;;;;;;;2.00;1.30;;;12.60;99.90;;;;;;5054085;28;20435;-67
2023/11/09 11:20:33;;;;;;;1.70;1.37;;;12.50;99.90;;;;;;5055823;28;20926;-66
2023/11/09 11:23:33;;;;;;;1.40;1.00;;;12.50;99.90;;;;;;5060546;28;20533;-66
2023/11/09 11:26:10;;;;;;;1.50;1.27;;;12.50;99.90;;;;;;5052831;28;20454;-65
2023/11/09 11:28:40;;;;;;;2.83;1.33;;;12.50;99.90;;;;;;5062567;28;20497;-65
2023/11/09 11:31:10;;;;;;;1.80;1.20;;;12.50;99.90;;;;;;5064354;28;20470;-66
2023/11/09 11:33:41;;;;;;;2.57;1.53;;;12.50;99.90;;;;;;5065109;28;20780;-66
2023/11/09 11:36:26;;;;;;;2.20;1.40;;;12.50;99.90;;;;;;5064626;28;20469;-66
2023/11/09 11:39:35;;;;;;;1.73;1.50;;;12.50;99.90;;;;;;5067456;28;20455;-65
2023/11/09 11:42:19;;;;;;;6.40;1.37;;;12.50;99.90;;;;;;5070378;28;20446;-66
2023/11/09 11:44:52;;;;;;;2.47;1.43;;;12.50;99.90;;;;;;5073744;28;20899;-67
2023/11/09 11:47:24;;;;;;;3.70;2.53;;;12.60;99.90;;;;;;5104461;28;20457;-67
2023/11/09 11:49:56;;;;;;;1.87;1.63;;;12.60;99.90;;;;;;5100980;28;20485;-66
2023/11/09 11:52:25;;;;;;;1.30;1.10;;;12.70;99.90;;;;;;5096306;28;20437;-66
2023/11/09 11:54:52;;;;;;;3.10;1.40;;;12.70;99.90;;;;;;5096133;28;20422;-66
2023/11/09 11:57:29;;;;;;;1.63;1.10;;;12.80;99.90;;;;;;5095868;28;20783;-67
2023/11/09 12:00:10;;;;;;;2.80;1.27;;;12.80;99.90;;;;;;5094988;28;21039;-65
2023/11/09 12:02:40;;;;;;;2.47;1.20;;;12.90;99.90;;;;;;5095598;28;20486;-66
2023/11/09 12:05:09;;;;;;;2.33;1.50;;;13.00;99.90;;;;;;5094545;28;20441;-66
2023/11/09 12:07:47;;;;;;;1.20;1.07;;;13.10;99.90;;;;;;5095410;28;20480;-65
2023/11/09 12:10:21;;;;;;;2.57;1.80;;;13.20;99.90;;;;;;5095667;28;20489;-66
2023/11/09 12:12:59;;;;;;;2.30;1.33;;;13.30;99.90;;;;;;5094879;28;20441;-67
2023/11/09 12:15:29;;;;;;;12.63;7.40;;;13.40;99.90;;;;;;5091502;28;20841;-66
2023/11/09 12:17:59;;;;;;;4.70;1.27;;;13.50;99.90;;;;;;5095269;28;20422;-66
2023/11/09 12:20:30;;;;;;;2.00;1.37;;;13.50;99.90;;;;;;5095341;28;20437;-66
2023/11/09 12:23:04;;;;;;;2.33;1.30;;;13.50;99.90;;;;;;5095635;28;20456;-67
2023/11/09 12:25:46;;;;;;;2.23;1.40;;;13.50;99.90;;;;;;5096608;28;20538;-66
2023/11/09 12:28:17;;;;;;;3.07;1.37;;;13.50;99.90;;;;;;5098376;28;20445;-68
2023/11/09 12:30:48;;;;;;;1.60;1.30;;;13.40;99.90;;;;;;5098997;28;20461;-67
2023/11/09 12:33:17;;;;;;;2.10;1.50;;;13.40;99.90;;;;;;5098873;28;20818;-65
2023/11/09 12:36:04;;;;;;;3.90;1.60;;;13.40;99.90;;;;;;5098862;28;20752;-68
2023/11/09 12:38:32;;;;;;;3.13;1.67;;;13.40;99.90;;;;;;5097641;28;20461;-67
2023/11/09 12:41:02;;;;;;;4.00;1.67;;;13.30;99.90;;;;;;5098894;28;20528;-66
2023/11/09 12:43:35;;;;;;;4.63;1.60;;;13.20;99.90;;;;;;5099995;28;20432;-66
2023/11/09 12:46:05;;;;;;;1.70;1.30;;;13.20;99.90;;;;;;5088772;28;20473;-66
2023/11/09 12:48:43;;;;;;;2.50;1.57;;;13.10;99.90;;;;;;5078287;28;20553;-66
2023/11/09 12:51:13;;;;;;;1.70;1.57;;;13.10;99.90;;;;;;5077092;28;20799;-67
2023/11/09 12:53:43;;;;;;;1.60;1.03;;;13.00;99.90;;;;;;5077964;28;20446;-66
2023/11/09 12:56:13;;;;;;;5.60;1.70;;;13.10;99.90;;;;;;5077805;28;20504;-65
2023/11/09 12:58:42;;;;;;;6.97;1.93;;;13.00;99.90;;;;;;5076736;28;20466;-67
2023/11/09 13:01:14;;;;;;;4.63;1.50;;;12.90;99.90;;;;;;5078817;28;20842;-65
2023/11/09 13:03:46;;;;;;;4.03;1.60;;;12.90;99.90;;;;;;5077411;28;20480;-65
2023/11/09 13:09:08;;;;;;;2.50;1.10;;;12.90;99.90;;;;;;5078363;28;20465;-67
2023/11/09 13:11:42;;;;;;;1.63;1.30;;;12.90;99.90;;;;;;5078108;28;20497;-66
2023/11/09 13:14:16;;;;;;;2.23;1.27;;;12.90;99.90;;;;;;5077649;28;20422;-66
2023/11/09 13:16:44;;;;;;;2.60;1.47;;;12.90;99.90;;;;;;5074385;28;20471;-67
2023/11/09 13:19:25;;;;;;;1.30;1.20;;;12.90;99.90;;;;;;5057454;28;20471;-68
2023/11/09 13:21:55;;;;;;;3.20;1.07;;;12.90;99.90;;;;;;5056685;28;20521;-65
2023/11/09 13:24:28;;;;;;;1.87;1.30;;;12.90;99.90;;;;;;5060087;28;20451;-65